createdAt,value
2018-04-12T00:01:15.027Z,81.40
2018-04-12T00:03:44.313Z,81.90
2018-04-12T00:06:12.492Z,81.90
2018-04-12T00:08:40.978Z,81.30
2018-04-12T00:11:09.052Z,81.90
2018-04-12T00:13:37.531Z,82.20
2018-04-12T00:16:05.806Z,83.50
2018-04-12T00:18:33.876Z,82.70
2018-04-12T00:21:01.947Z,82.50
2018-04-12T00:23:30.021Z,82.70
2018-04-12T00:25:58.198Z,82.90
2018-04-12T00:28:26.461Z,83.40
2018-04-12T00:30:54.601Z,83.60
2018-04-12T00:33:23.125Z,84.40
2018-04-12T00:35:50.986Z,84.50
2018-04-12T00:38:19.401Z,84.90
2018-04-12T00:40:48.461Z,85.50
2018-04-12T00:43:16.431Z,85.50
2018-04-12T00:45:46.249Z,85.90
2018-04-12T00:48:14.434Z,85.80
2018-04-12T00:50:43.214Z,86.70
2018-04-12T00:53:11.446Z,86.70
2018-04-12T00:55:39.465Z,86.80
2018-04-12T00:58:09.119Z,86.80
2018-04-12T01:00:37.537Z,86.70
2018-04-12T01:03:06.222Z,87.00
2018-04-12T01:05:34.726Z,87.00
2018-04-12T01:08:07.369Z,87.00
2018-04-12T01:10:35.452Z,86.90
2018-04-12T01:13:03.623Z,87.00
2018-04-12T01:15:32.180Z,87.00
2018-04-12T01:18:00.283Z,87.20
2018-04-12T01:20:28.248Z,87.80
2018-04-12T01:22:56.288Z,88.40
2018-04-12T01:25:24.698Z,88.70
2018-04-12T01:27:52.868Z,88.80
2018-04-12T01:30:21.146Z,88.30
2018-04-12T01:33:00.788Z,88.30
2018-04-12T01:35:28.863Z,88.10
2018-04-12T01:37:57.037Z,88.30
2018-04-12T01:40:25.213Z,88.50
2018-04-12T01:42:53.608Z,88.30
2018-04-12T01:45:22.372Z,89.30
2018-04-12T01:47:50.212Z,89.30
2018-04-12T01:50:18.413Z,89.80
2018-04-12T01:52:46.481Z,89.80
2018-04-12T01:55:14.762Z,89.70
2018-04-12T01:57:42.827Z,89.60
2018-04-12T02:00:11.077Z,89.60
2018-04-12T02:02:39.171Z,89.90
2018-04-12T02:05:07.359Z,90.20
2018-04-12T02:07:35.392Z,90.40
2018-04-12T02:10:03.592Z,90.80
2018-04-12T02:12:31.968Z,90.50
2018-04-12T02:15:00.212Z,90.50
2018-04-12T02:17:28.421Z,90.40
2018-04-12T02:19:56.697Z,90.60
2018-04-12T02:22:24.943Z,90.50
2018-04-12T02:24:53.152Z,90.50
2018-04-12T02:27:21.318Z,90.70
2018-04-12T02:29:49.569Z,90.80
2018-04-12T02:32:17.460Z,90.90
2018-04-12T02:34:45.633Z,91.10
2018-04-12T02:37:13.497Z,91.10
2018-04-12T02:39:41.448Z,91.10
2018-04-12T02:42:09.642Z,91.20
2018-04-12T02:44:37.608Z,91.30
2018-04-12T02:47:05.752Z,91.20
2018-04-12T02:49:33.728Z,91.70
2018-04-12T02:52:01.943Z,91.50
2018-04-12T02:54:30.887Z,91.50
2018-04-12T02:56:58.793Z,91.50
2018-04-12T02:59:26.968Z,91.60
2018-04-12T03:01:55.128Z,91.70
2018-04-12T03:04:23.723Z,91.70
2018-04-12T03:06:51.590Z,91.90
2018-04-12T03:09:19.446Z,92.00
2018-04-12T03:11:47.618Z,92.00
2018-04-12T03:14:15.589Z,92.00
2018-04-12T03:16:43.558Z,92.10
2018-04-12T03:19:11.523Z,92.20
2018-04-12T03:21:39.888Z,92.10
2018-04-12T03:24:08.488Z,92.20
2018-04-12T03:26:36.458Z,92.10
2018-04-12T03:29:04.430Z,92.10
2018-04-12T03:31:32.703Z,92.20
2018-04-12T03:34:00.633Z,92.10
2018-04-12T03:36:28.838Z,92.20
2018-04-12T03:38:56.808Z,92.30
2018-04-12T03:41:24.771Z,92.30
2018-04-12T03:43:53.778Z,92.40
2018-04-12T03:46:21.934Z,92.40
2018-04-12T03:48:50.170Z,92.50
2018-04-12T03:51:18.598Z,92.50
2018-04-12T03:53:46.563Z,92.40
2018-04-12T03:56:15.313Z,92.70
2018-04-12T03:58:43.634Z,92.50
2018-04-12T04:01:12.634Z,92.50
2018-04-12T04:03:40.594Z,92.50
2018-04-12T04:06:09.378Z,92.50
2018-04-12T04:08:37.649Z,92.50
2018-04-12T04:11:06.137Z,92.50
2018-04-12T04:13:34.194Z,92.60
2018-04-12T04:16:14.057Z,92.90
2018-04-12T04:18:54.730Z,92.60
2018-04-12T04:21:22.785Z,92.50
2018-04-12T04:23:50.753Z,92.50
2018-04-12T04:26:20.490Z,92.60
2018-04-12T04:28:49.877Z,92.60
2018-04-12T04:31:18.050Z,92.60
2018-04-12T04:33:46.570Z,92.50
2018-04-12T04:36:14.982Z,92.50
2018-04-12T04:38:42.866Z,92.40
2018-04-12T04:41:10.945Z,92.40
2018-04-12T04:43:40.115Z,92.20
2018-04-12T04:46:08.226Z,92.20
2018-04-12T04:48:37.114Z,92.00
2018-04-12T04:51:06.203Z,91.60
2018-04-12T04:53:34.794Z,91.60
2018-04-12T04:56:03.782Z,92.00
2018-04-12T04:58:31.833Z,91.90
2018-04-12T05:01:00.333Z,91.60
2018-04-12T05:03:28.830Z,91.60
2018-04-12T05:05:57.926Z,91.40
2018-04-12T05:08:28.128Z,91.30
2018-04-12T05:10:56.995Z,91.30
2018-04-12T05:13:25.672Z,91.20
2018-04-12T05:15:54.198Z,91.20
2018-04-12T05:18:23.790Z,91.10
2018-04-12T05:20:52.472Z,91.00
2018-04-12T05:23:20.636Z,90.90
2018-04-12T05:25:50.609Z,90.80
2018-04-12T05:28:19.051Z,90.70
2018-04-12T05:30:48.250Z,90.30
2018-04-12T05:33:17.837Z,90.10
2018-04-12T05:35:46.301Z,90.10
2018-04-12T05:38:14.829Z,90.20
2018-04-12T05:40:44.418Z,90.20
2018-04-12T05:43:12.698Z,90.20
2018-04-12T05:45:42.748Z,89.30
2018-04-12T05:48:10.884Z,89.20
2018-04-12T05:50:39.357Z,88.60
2018-04-12T05:53:07.720Z,87.90
2018-04-12T05:55:36.412Z,86.20
2018-04-12T05:58:05.037Z,85.20
2018-04-12T06:00:34.236Z,83.20
2018-04-12T06:03:02.270Z,83.10
2018-04-12T06:05:30.441Z,82.00
2018-04-12T06:07:58.975Z,81.00
2018-04-12T06:10:27.328Z,80.20
2018-04-12T06:12:55.981Z,78.60
2018-04-12T06:15:24.160Z,78.60
2018-04-12T06:17:52.130Z,77.90
2018-04-12T06:20:20.683Z,77.10
2018-04-12T06:22:48.880Z,75.20
2018-04-12T06:25:17.056Z,74.30
2018-04-12T06:27:45.447Z,72.80
2018-04-12T06:30:13.520Z,71.50
2018-04-12T06:32:41.878Z,71.40
2018-04-12T06:35:10.161Z,69.80
2018-04-12T06:37:38.237Z,68.10
2018-04-12T06:40:06.508Z,67.00
2018-04-12T06:42:34.552Z,65.50
2018-04-12T06:45:02.956Z,64.40
2018-04-12T06:47:31.125Z,63.20
2018-04-12T06:49:59.171Z,62.10
2018-04-12T06:52:27.576Z,61.80
2018-04-12T06:54:55.744Z,60.00
2018-04-12T06:57:24.198Z,58.30
2018-04-12T06:59:52.198Z,57.30
2018-04-12T07:02:23.070Z,56.30
2018-04-12T07:04:52.297Z,56.50
2018-04-12T07:07:21.671Z,56.40
2018-04-12T07:09:50.731Z,53.90
2018-04-12T07:12:19.770Z,53.80
2018-04-12T07:14:48.810Z,51.10
2018-04-12T07:17:17.220Z,51.10
2018-04-12T07:19:46.076Z,50.60
2018-04-12T07:22:14.295Z,50.60
2018-04-12T07:24:42.751Z,49.20
2018-04-12T07:27:11.311Z,49.10
2018-04-12T07:29:39.807Z,48.20
2018-04-12T07:32:08.368Z,46.10
2018-04-12T07:34:36.773Z,45.50
2018-04-12T07:37:05.846Z,44.70
2018-04-12T07:39:34.158Z,44.60
2018-04-12T07:42:03.126Z,44.80
2018-04-12T07:44:31.318Z,44.80
2018-04-12T07:47:00.486Z,44.50
2018-04-12T07:49:28.634Z,44.50
2018-04-12T07:51:56.871Z,42.40
2018-04-12T07:54:25.271Z,42.30
2018-04-12T07:56:53.823Z,42.00
2018-04-12T07:59:23.404Z,40.60
2018-04-12T08:01:51.788Z,40.00
2018-04-12T08:04:20.316Z,39.60
2018-04-12T08:06:48.859Z,39.80
2018-04-12T08:09:16.843Z,39.60
2018-04-12T08:11:45.815Z,39.80
2018-04-12T08:14:14.376Z,39.80
2018-04-12T08:16:42.586Z,37.90
2018-04-12T08:19:11.715Z,36.90
2018-04-12T08:21:40.771Z,35.70
2018-04-12T08:24:10.737Z,35.80
2018-04-12T08:26:38.957Z,35.80
2018-04-12T08:29:07.816Z,36.30
2018-04-12T08:31:36.017Z,36.30
2018-04-12T08:34:03.996Z,34.60
2018-04-12T08:36:33.560Z,32.90
2018-04-12T08:39:01.976Z,32.80
2018-04-12T08:41:31.176Z,32.30
2018-04-12T08:43:59.241Z,32.10
2018-04-12T08:46:27.320Z,31.20
2018-04-12T08:48:55.695Z,31.80
2018-04-12T08:51:24.072Z,32.80
2018-04-12T08:53:52.292Z,31.60
2018-04-12T08:56:20.633Z,31.50
2018-04-12T08:58:50.213Z,31.30
2018-04-12T09:01:18.564Z,31.30
2018-04-12T09:03:46.780Z,31.60
2018-04-12T09:06:15.322Z,32.00
2018-04-12T09:08:43.224Z,32.50
2018-04-12T09:11:11.719Z,32.90
2018-04-12T09:13:39.986Z,32.60
2018-04-12T09:16:08.047Z,33.00
2018-04-12T09:18:36.683Z,33.00
2018-04-12T09:21:04.915Z,33.40
2018-04-12T09:23:33.292Z,33.50
2018-04-12T09:26:01.560Z,32.80
2018-04-12T09:28:30.528Z,33.10
2018-04-12T09:30:59.138Z,33.00
2018-04-12T09:33:27.216Z,33.00
2018-04-12T09:35:55.619Z,33.00
2018-04-12T09:38:24.471Z,33.70
2018-04-12T09:40:52.342Z,33.70
2018-04-12T09:43:20.417Z,33.60
2018-04-12T09:45:49.408Z,32.90
2018-04-12T09:48:17.381Z,32.90
2018-04-12T09:50:47.070Z,33.40
2018-04-12T09:53:15.582Z,33.40
2018-04-12T09:55:44.990Z,33.10
2018-04-12T09:58:14.191Z,31.50
2018-04-12T10:00:43.582Z,32.80
2018-04-12T10:03:12.686Z,32.80
2018-04-12T10:05:47.470Z,34.00
2018-04-12T10:08:21.416Z,34.00
2018-04-12T10:10:50.831Z,33.90
2018-04-12T10:13:19.709Z,33.90
2018-04-12T10:15:48.589Z,34.80
2018-04-12T10:18:17.075Z,34.80
2018-04-12T10:20:45.750Z,36.10
2018-04-12T10:23:14.543Z,36.10
2018-04-12T10:25:42.926Z,36.00
2018-04-12T10:28:11.502Z,37.40
2018-04-12T10:30:40.206Z,37.10
2018-04-12T10:33:09.390Z,36.10
2018-04-12T10:35:37.770Z,36.10
2018-04-12T10:38:06.351Z,35.70
2018-04-12T10:40:40.095Z,36.20
2018-04-12T10:43:08.691Z,36.50
2018-04-12T10:45:37.989Z,35.10
2018-04-12T10:48:06.847Z,34.70
2018-04-12T10:50:36.750Z,32.10
2018-04-12T10:53:06.077Z,31.20
2018-04-12T10:55:34.528Z,31.20
2018-04-12T10:58:02.702Z,31.50
2018-04-12T11:00:31.901Z,29.70
2018-04-12T11:03:00.989Z,29.20
2018-04-12T11:05:29.581Z,29.20
2018-04-12T11:07:58.909Z,30.80
2018-04-12T11:10:27.261Z,30.80
2018-04-12T11:12:57.261Z,33.20
2018-04-12T11:15:25.549Z,33.20
2018-04-12T11:17:54.038Z,34.40
2018-04-12T11:20:23.232Z,34.40
2018-04-12T11:22:52.623Z,34.60
2018-04-12T11:25:20.843Z,34.60
2018-04-12T11:27:50.269Z,34.60
2018-04-12T11:30:20.142Z,34.60
2018-04-12T11:32:48.589Z,33.60
2018-04-12T11:35:16.988Z,32.80
2018-04-12T11:37:46.187Z,34.00
2018-04-12T11:40:15.484Z,35.60
2018-04-12T11:42:44.876Z,35.90
2018-04-12T11:45:13.585Z,35.90
2018-04-12T11:47:42.028Z,36.30
2018-04-12T11:50:10.525Z,37.00
2018-04-12T11:52:39.501Z,37.50
2018-04-12T11:55:07.789Z,37.40
2018-04-12T11:57:35.949Z,37.20
2018-04-12T12:00:04.237Z,37.30
2018-04-12T12:02:33.552Z,36.50
2018-04-12T12:05:02.733Z,36.30
2018-04-12T12:07:31.741Z,36.30
2018-04-12T12:10:00.925Z,36.20
2018-04-12T12:12:29.920Z,36.20
2018-04-12T12:14:58.910Z,35.10
2018-04-12T12:17:26.988Z,35.00
2018-04-12T12:19:55.981Z,34.70
2018-04-12T12:22:24.861Z,35.10
2018-04-12T12:24:53.874Z,34.80
2018-04-12T12:27:23.052Z,35.50
2018-04-12T12:29:51.730Z,35.50
2018-04-12T12:32:20.029Z,36.00
2018-04-12T12:34:49.210Z,35.10
2018-04-12T12:37:18.642Z,35.00
2018-04-12T12:39:47.038Z,34.60
2018-04-12T12:42:15.261Z,33.20
2018-04-12T12:44:43.837Z,32.50
2018-04-12T12:47:12.750Z,31.90
2018-04-12T12:49:41.949Z,31.50
2018-04-12T12:52:11.117Z,29.60
2018-04-12T12:54:39.597Z,29.60
2018-04-12T12:57:08.510Z,30.00
2018-04-12T12:59:37.983Z,30.00
2018-04-12T13:18:21.663Z,30.00
2018-04-12T13:20:50.447Z,29.60
2018-04-12T13:23:19.949Z,30.00
2018-04-12T13:25:49.151Z,30.00
2018-04-12T13:28:18.142Z,30.00
2018-04-12T13:30:47.230Z,29.70
2018-04-12T13:33:15.510Z,29.80
2018-04-12T13:35:44.510Z,30.00
2018-04-12T13:38:13.790Z,30.10
2018-04-12T13:40:42.063Z,30.00
2018-04-12T13:43:10.376Z,30.60
2018-04-12T13:45:39.631Z,32.30
2018-04-12T13:48:08.142Z,32.30
2018-04-12T13:50:37.126Z,32.80
2018-04-12T13:53:05.406Z,32.80
2018-04-12T13:55:34.190Z,33.10
2018-04-12T13:58:03.486Z,33.90
2018-04-12T14:00:32.031Z,33.20
2018-04-12T14:03:00.349Z,32.90
2018-04-12T14:05:28.533Z,32.20
2018-04-12T14:07:57.405Z,32.60
2018-04-12T14:10:25.806Z,32.60
2018-04-12T14:12:55.269Z,32.30
2018-04-12T14:15:23.678Z,32.30
2018-04-12T14:17:52.367Z,32.10
2018-04-12T14:20:21.444Z,31.30
2018-04-12T14:22:49.500Z,31.20
2018-04-12T14:25:17.899Z,30.30
2018-04-12T14:27:45.964Z,29.50
2018-04-12T14:30:14.155Z,29.40
2018-04-12T14:32:43.147Z,29.40
2018-04-12T14:35:12.683Z,28.90
2018-04-12T14:37:41.195Z,28.80
2018-04-12T14:40:09.708Z,28.50
2018-04-12T14:42:38.108Z,28.90
2018-04-12T14:45:08.228Z,27.80
2018-04-12T14:47:37.308Z,28.20
2018-04-12T14:50:06.300Z,28.30
2018-04-12T14:52:35.551Z,28.90
2018-04-12T14:55:04.108Z,28.80
2018-04-12T14:57:32.763Z,29.30
2018-04-12T15:00:01.108Z,28.70
2018-04-12T15:02:29.307Z,28.90
2018-04-12T15:04:57.484Z,29.40
2018-04-12T15:07:27.069Z,28.90
2018-04-12T15:09:55.359Z,28.30
2018-04-12T15:12:23.868Z,28.70
2018-04-12T15:14:52.708Z,28.70
2018-04-12T15:17:20.989Z,28.60
2018-04-12T15:19:49.263Z,28.60
2018-04-12T15:22:17.643Z,28.90
2018-04-12T15:24:45.629Z,28.80
2018-04-12T15:27:13.996Z,28.60
2018-04-12T15:29:42.397Z,28.70
2018-04-12T15:32:10.649Z,29.40
2018-04-12T15:34:41.195Z,29.90
2018-04-12T15:37:09.387Z,29.90
2018-04-12T15:39:37.948Z,29.70
2018-04-12T15:42:06.139Z,29.60
2018-04-12T15:44:35.581Z,29.80
2018-04-12T15:47:03.707Z,29.70
2018-04-12T15:49:32.912Z,30.70
2018-04-12T15:52:02.203Z,30.70
2018-04-12T15:54:32.588Z,31.20
2018-04-12T15:57:00.877Z,31.30
2018-04-12T15:59:29.308Z,31.70
2018-04-12T16:01:57.974Z,31.90
2018-04-12T16:04:26.909Z,32.20
2018-04-12T16:06:55.146Z,32.10
2018-04-12T16:09:24.349Z,32.80
2018-04-12T16:11:53.500Z,33.40
2018-04-12T16:14:21.996Z,33.30
2018-04-12T16:16:50.699Z,33.60
2018-04-12T16:19:19.915Z,34.30
2018-04-12T16:21:49.084Z,33.80
2018-04-12T16:24:19.228Z,33.80
2018-04-12T16:26:48.489Z,33.90
2018-04-12T16:29:17.276Z,33.90
2018-04-12T16:31:45.675Z,33.90
2018-04-12T16:34:15.180Z,34.10
2018-04-12T16:36:45.709Z,34.10
2018-04-12T16:39:15.101Z,35.20
2018-04-12T16:41:43.195Z,35.20
2018-04-12T16:44:12.348Z,35.30
2018-04-12T16:46:40.828Z,35.30
2018-04-12T16:49:09.435Z,35.40
2018-04-12T16:51:38.396Z,35.50
2018-04-12T16:54:07.308Z,35.70
2018-04-12T16:56:37.628Z,35.90
2018-04-12T16:59:05.980Z,36.20
2018-04-12T17:01:34.589Z,36.50
2018-04-12T17:04:02.877Z,36.50
2018-04-12T17:06:31.389Z,36.70
2018-04-12T17:09:01.069Z,36.90
2018-04-12T17:11:30.356Z,36.80
2018-04-12T17:14:00.596Z,37.10
2018-04-12T17:16:29.094Z,37.10
2018-04-12T17:18:58.029Z,37.70
2018-04-12T17:21:27.484Z,38.00
2018-04-12T17:23:56.460Z,38.40
2018-04-12T17:26:24.949Z,38.40
2018-04-12T17:28:53.228Z,38.40
2018-04-12T17:31:23.341Z,39.10
2018-04-12T17:33:52.517Z,39.10
2018-04-12T17:36:20.877Z,39.20
2018-04-12T17:38:50.349Z,39.60
2018-04-12T17:41:19.725Z,39.90
2018-04-12T17:43:48.925Z,40.10
2018-04-12T17:46:17.917Z,40.60
2018-04-12T17:48:47.181Z,40.50
2018-04-12T17:51:15.838Z,40.40
2018-04-12T17:53:44.237Z,41.50
2018-04-12T17:56:12.759Z,41.50
2018-04-12T17:58:41.309Z,41.30
2018-04-12T18:01:10.111Z,41.90
2018-04-12T18:03:38.270Z,42.70
2018-04-12T18:06:07.342Z,42.20
2018-04-12T18:08:36.590Z,42.20
2018-04-12T18:11:05.869Z,43.40
2018-04-12T18:13:34.061Z,42.80
2018-04-12T18:16:02.317Z,42.70
2018-04-12T18:18:30.992Z,43.10
2018-04-12T18:20:58.989Z,42.80
2018-04-12T18:23:27.513Z,44.30
2018-04-12T18:25:55.965Z,44.10
2018-04-12T18:28:25.060Z,44.70
2018-04-12T18:30:54.231Z,44.50
2018-04-12T18:33:22.624Z,44.50
2018-04-12T18:35:50.953Z,44.00
2018-04-12T18:38:19.032Z,44.50
2018-04-12T18:40:47.736Z,44.70
2018-04-12T18:43:16.044Z,45.00
2018-04-12T18:45:45.336Z,46.80
2018-04-12T18:48:13.498Z,46.20
2018-04-12T18:50:41.401Z,46.00
2018-04-12T18:53:10.359Z,46.80
2018-04-12T18:55:39.560Z,47.10
2018-04-12T18:58:07.464Z,47.00
2018-04-12T19:00:35.545Z,47.50
2018-04-12T19:03:03.623Z,47.00
2018-04-12T19:05:33.100Z,47.50
2018-04-12T19:08:02.056Z,47.60
2018-04-12T19:10:30.105Z,47.90
2018-04-12T19:12:58.104Z,48.50
2018-04-12T19:15:26.261Z,49.40
2018-04-12T19:17:54.764Z,48.90
2018-04-12T19:20:23.097Z,49.90
2018-04-12T19:22:51.419Z,49.90
2018-04-12T19:25:21.226Z,50.80
2018-04-12T19:27:49.351Z,50.80
2018-04-12T19:30:17.256Z,51.20
2018-04-12T19:32:46.359Z,51.70
2018-04-12T19:35:14.541Z,52.20
2018-04-12T19:37:43.624Z,53.00
2018-04-12T19:40:11.736Z,52.90
2018-04-12T19:42:40.056Z,53.10
2018-04-12T19:45:08.137Z,53.20
2018-04-12T19:47:36.264Z,53.40
2018-04-12T19:50:04.440Z,53.60
2018-04-12T19:52:33.361Z,53.50
2018-04-12T19:55:01.867Z,53.70
2018-04-12T19:57:30.024Z,54.00
2018-04-12T19:59:58.103Z,54.90
2018-04-12T20:02:26.200Z,54.80
2018-04-12T20:04:55.831Z,56.00
2018-04-12T20:07:24.056Z,56.00
2018-04-12T20:09:52.231Z,56.20
2018-04-12T20:12:20.303Z,56.10
2018-04-12T20:14:48.777Z,57.00
2018-04-12T20:17:17.783Z,57.60
2018-04-12T20:19:46.631Z,57.80
2018-04-12T20:22:15.590Z,57.80
2018-04-12T20:24:44.551Z,58.80
2018-04-12T20:27:12.919Z,58.80
2018-04-12T20:29:40.935Z,58.90
2018-04-12T20:32:09.083Z,59.60
2018-04-12T20:34:38.518Z,60.60
2018-04-12T20:37:06.663Z,60.60
2018-04-12T20:39:35.519Z,62.10
2018-04-12T20:42:04.331Z,62.10
2018-04-12T20:44:32.422Z,62.90
2018-04-12T20:47:01.179Z,63.90
2018-04-12T20:49:29.493Z,63.80
2018-04-12T20:51:58.262Z,65.60
2018-04-12T20:54:26.959Z,66.10
2018-04-12T20:56:55.783Z,66.60
2018-04-12T20:59:23.974Z,66.60
2018-04-12T21:01:52.279Z,67.10
2018-04-12T21:04:21.350Z,67.70
2018-04-12T21:06:49.382Z,68.50
2018-04-12T21:09:17.494Z,68.50
2018-04-12T21:11:45.423Z,68.80
2018-04-12T21:14:14.103Z,69.30
2018-04-12T21:16:42.510Z,69.90
2018-04-12T21:19:10.622Z,70.30
2018-04-12T21:21:39.374Z,70.90
2018-04-12T21:24:07.257Z,71.00
2018-04-12T21:26:35.535Z,71.10
2018-04-12T21:29:04.538Z,71.80
2018-04-12T21:31:32.870Z,71.80
2018-04-12T21:34:01.071Z,71.90
2018-04-12T21:36:29.159Z,71.90
2018-04-12T21:38:57.015Z,72.20
2018-04-12T21:41:25.135Z,72.70
2018-04-12T21:43:53.615Z,73.00
2018-04-12T21:46:22.352Z,73.00
2018-04-12T21:48:50.431Z,73.20
2018-04-12T21:51:18.384Z,73.60
2018-04-12T21:53:47.033Z,73.90
2018-04-12T21:56:15.673Z,74.30
2018-04-12T21:58:43.633Z,74.70
2018-04-12T22:01:11.818Z,75.10
2018-04-12T22:03:40.032Z,75.30
2018-04-12T22:06:08.656Z,75.60
2018-04-12T22:08:36.832Z,76.10
2018-04-12T22:11:04.911Z,76.00
2018-04-12T22:13:33.512Z,76.10
2018-04-12T22:16:01.447Z,76.50
2018-04-12T22:18:29.630Z,76.50
2018-04-12T22:20:57.894Z,76.90
2018-04-12T22:23:26.094Z,77.40
2018-04-12T22:25:54.552Z,77.70
2018-04-12T22:28:22.630Z,78.00
2018-04-12T22:30:50.495Z,78.30
2018-04-12T22:33:18.574Z,78.50
2018-04-12T22:35:46.951Z,78.70
2018-04-12T22:38:14.815Z,78.60
2018-04-12T22:40:43.095Z,79.20
2018-04-12T22:43:11.677Z,79.70
2018-04-12T22:45:39.536Z,79.80
2018-04-12T22:48:07.815Z,79.70
2018-04-12T22:50:35.832Z,79.70
2018-04-12T22:53:03.683Z,79.80
2018-04-12T22:55:32.511Z,79.90
2018-04-12T22:58:00.236Z,79.80
2018-04-12T23:00:28.887Z,79.90
2018-04-12T23:02:56.527Z,79.90
2018-04-12T23:05:24.815Z,80.20
2018-04-12T23:07:53.095Z,80.00
2018-04-12T23:10:21.423Z,79.80
2018-04-12T23:12:49.255Z,80.10
2018-04-12T23:15:17.912Z,80.30
2018-04-12T23:17:45.895Z,80.30
2018-04-12T23:20:13.755Z,80.10
2018-04-12T23:22:41.607Z,80.00
2018-04-12T23:25:10.432Z,80.10
2018-04-12T23:27:38.695Z,80.30
2018-04-12T23:30:07.074Z,80.70
2018-04-12T23:32:35.223Z,80.60
2018-04-12T23:35:03.416Z,81.10
2018-04-12T23:37:31.271Z,80.10
2018-04-12T23:39:59.151Z,80.00
2018-04-12T23:42:27.015Z,80.30
2018-04-12T23:44:55.447Z,79.90
2018-04-12T23:47:23.960Z,79.90
2018-04-12T23:49:51.831Z,80.70
2018-04-12T23:52:19.752Z,80.10
2018-04-12T23:54:48.824Z,80.60
2018-04-12T23:57:17.472Z,81.10
2018-04-12T23:59:45.591Z,81.10
